Bayerns grosse Airshow

motor veste rechts h240

joomla templates top joomla templates template joomla

Notam

C3641/14 - CUSTOMS AVBL PPR, TEL 0049 9561 92098. 13 NOV 14:46 2014 UNTIL PERM. CREATED: 13 NOV 14:47 2014

Neue Wetteranzeige

Aktuelles Platzwetter Stand 21.10.2017 01:03Z

AvgMinMax
Windrichtung200190230Deg
Windgeschwindigkeit324kt
Sichtweite>10000m
Temperatur8°C
Taupunkt/////°C
Feuchte/////%
QNH1017.1hPa
QFE963.6hPa
WolkenSKC

Aerodrome Terminal Information Service (ATIS) Coburg

METAR
EDQC 210050Z AUTO 21003KT CAVOK 08/// Q1017=

METAR und TAF der Umgebung

[Quelle: ADDS]
METAR
EDDF 210050Z 17003KT CAVOK 07/06 Q1016 NOSIG =
EDDN 210050Z 36001KT CAVOK 12/08 Q1018 =
EDDE 210050Z 21007KT 9999 BKN047 09/07 Q1016 =
TAF
EDDF 202300Z 2100/2206 24003KT 9999 SCT040 BECMG 2105/2108 BKN025 BECMG 2109/2112 20009KT PROB30 TEMPO 2112/2117 4500 RA PROB30 TEMPO 2122/2202 20015G25KT =
EDDN 202300Z 2100/2124 25005KT 9999 BKN030 BECMG 2100/2102 14004KT BECMG 2110/2112 23006KT PROB30 TEMPO 2116/2120 RA BKN012 PROB30 TEMPO 2120/2124 SHRA BKN015TCU =
EDDE 202300Z 2100/2124 22009KT CAVOK TEMPO 2114/2117 4500 -RADZ BKN012 =
SR / SS: 05:50 / 16:13 UTC (EDQC 2017-10-21)

Wetterverlauf

Verkehrslandeplatz Coburg Brandensteinsebene
Tower
Zur Brandensteinsebene
96450 Coburg

AeroClub Logo 200px

Aero Club Coburg e. V.
Postfach 11 09
96401 Coburg